Felix-Klein-Gymnasium, Gttingen, 150m NN
Donnes mto: Actuelle Sonntag, 20.01.2019 00:15
Date Horaire Temp. E. Hum. E. P.atmo. Pluie Vent Direction Direction Ensoleilleme P. de rose Temp au vent Rafales
20.01.2019 00:15 -5,3 C 88 % 1015,1 hPa 0,0 mm 0,0 km/h (0 Bft) E-NE 78 0 min -7,0 C -5,3 C 0,0 km/h (0 Bft)
20.01.2019 00:00 -5,2 C 88 % 1015,0 hPa 0,0 mm 0,0 km/h (0 Bft) E-NE 78 0 min -6,9 C -5,2 C 0,0 km/h (0 Bft)
19.01.2019 22:45 -4,4 C 86 % 1015,1 hPa 0,0 mm 0,0 km/h (0 Bft) E-NE 78 0 min -6,4 C -4,4 C 0,0 km/h (0 Bft)
19.01.2019 22:30 -4,3 C 86 % 1015,2 hPa 0,0 mm 0,0 km/h (0 Bft) E-NE 78 0 min -6,3 C -4,3 C 1,6 km/h (1 Bft)
19.01.2019 22:15 -4,1 C 86 % 1015,1 hPa 0,0 mm 0,1 km/h (0 Bft) E-NE 78 0 min -6,1 C -4,1 C 3,2 km/h (1 Bft)
19.01.2019 22:00 -3,9 C 86 % 1015,1 hPa 0,0 mm 0,0 km/h (0 Bft) E-NE 78 0 min -5,9 C -3,9 C 0,0 km/h (0 Bft)
19.01.2019 21:45 -3,8 C 86 % 1015,1 hPa 0,0 mm 0,0 km/h (0 Bft) E-NE 78 0 min -5,8 C -3,8 C 0,0 km/h (0 Bft)
19.01.2019 21:30 -3,6 C 85 % 1015,2 hPa 0,0 mm 0,0 km/h (0 Bft) E-NE 78 0 min -5,7 C -3,6 C 0,0 km/h (0 Bft)
19.01.2019 21:15 -3,2 C 84 % 1015,2 hPa 0,0 mm 0,0 km/h (0 Bft) E-NE 78 0 min -5,5 C -3,2 C 0,0 km/h (0 Bft)
19.01.2019 21:00 -2,8 C 84 % 1015,2 hPa 0,0 mm 0,0 km/h (0 Bft) E-NE 78 0 min -5,1 C -2,8 C 0,0 km/h (0 Bft)
19.01.2019 20:45 -2,5 C 82 % 1015,3 hPa 0,0 mm 0,0 km/h (0 Bft) E-NE 78 0 min -5,1 C -2,5 C 0,0 km/h (0 Bft)
19.01.2019 20:30 -2,1 C 82 % 1015,4 hPa 0,0 mm 0,0 km/h (0 Bft) E-NE 78 0 min -4,7 C -2,1 C 0,0 km/h (0 Bft)
19.01.2019 20:15 -1,8 C 81 % 1015,3 hPa 0,0 mm 0,0 km/h (0 Bft) E-NE 78 0 min -4,6 C -1,8 C 0,0 km/h (0 Bft)
19.01.2019 20:00 -1,8 C 81 % 1015,3 hPa 0,0 mm 0,0 km/h (0 Bft) E-NE 78 0 min -4,6 C -1,8 C 0,0 km/h (0 Bft)
19.01.2019 19:45 -1,6 C 80 % 1015,3 hPa 0,0 mm 0,0 km/h (0 Bft) E-NE 78 0 min -4,6 C -1,6 C 0,0 km/h (0 Bft)
19.01.2019 19:30 -1,5 C 79 % 1015,3 hPa 0,0 mm 0,0 km/h (0 Bft) E-NE 78 0 min -4,7 C -1,5 C 0,0 km/h (0 Bft)
19.01.2019 19:15 -1,3 C 79 % 1015,3 hPa 0,0 mm 0,0 km/h (0 Bft) E-NE 78 0 min -4,5 C -1,3 C 0,0 km/h (0 Bft)
19.01.2019 19:00 -1,2 C 78 % 1015,4 hPa 0,0 mm 0,0 km/h (0 Bft) E-NE 78 0 min -4,5 C -1,2 C 0,0 km/h (0 Bft)
19.01.2019 18:45 -1,1 C 77 % 1015,3 hPa 0,0 mm 0,0 km/h (0 Bft) E-NE 78 0 min -4,6 C -1,1 C 0,0 km/h (0 Bft)
19.01.2019 18:30 -0,9 C 76 % 1015,3 hPa 0,0 mm 0,0 km/h (0 Bft) E-NE 78 0 min -4,6 C -0,9 C 0,0 km/h (0 Bft)
19.01.2019 18:15 -0,7 C 74 % 1015,3 hPa 0,0 mm 0,0 km/h (0 Bft) E-NE 78 0 min -4,7 C -0,7 C 0,0 km/h (0 Bft)
19.01.2019 18:00 -0,4 C 72 % 1015,4 hPa 0,0 mm 0,0 km/h (0 Bft) E-NE 78 0 min -4,8 C -0,4 C 1,6 km/h (1 Bft)
19.01.2019 17:15 0,6 C 63 % 1015,4 hPa 0,0 mm 0,0 km/h (0 Bft) S-SO 200 0 min -5,6 C 0,6 C 0,0 km/h (0 Bft)
19.01.2019 17:00 0,8 C 60 % 1015,4 hPa 0,0 mm 0,0 km/h (0 Bft) S-SO 200 0 min -6,1 C 0,8 C 0,0 km/h (0 Bft)
19.01.2019 16:45 0,9 C 60 % 1015,5 hPa 0,0 mm 0,0 km/h (0 Bft) E-NE 65 0 min -6,0 C 0,9 C 4,8 km/h (1 Bft)
19.01.2019 16:30 1,1 C 58 % 1015,6 hPa 0,0 mm 3,2 km/h (1 Bft) E-NE 65 15 min -6,2 C 1,1 C 11,3 km/h (2 Bft)
19.01.2019 16:15 1,3 C 61 % 1015,7 hPa 0,0 mm 1,6 km/h (1 Bft) N-NE 20 15 min -5,4 C 1,3 C 12,9 km/h (3 Bft)
19.01.2019 16:00 1,3 C 60 % 1015,7 hPa 0,0 mm 4,8 km/h (1 Bft) N-NE 20 0 min -5,6 C -0,0 C 16,1 km/h (3 Bft)
19.01.2019 15:45 1,5 C 62 % 1015,8 hPa 0,0 mm 1,6 km/h (1 Bft) E-NE 65 0 min -5,0 C 1,5 C 8,0 km/h (2 Bft)
19.01.2019 15:30 1,7 C 61 % 1015,8 hPa 0,0 mm 1,6 km/h (1 Bft) E-NE 65 15 min -5,0 C 1,7 C 9,7 km/h (2 Bft)
19.01.2019 15:15 1,6 C 59 % 1015,9 hPa 0,0 mm 4,8 km/h (1 Bft) NE 42 15 min -5,5 C 0,3 C 12,9 km/h (3 Bft)
19.01.2019 15:00 1,4 C 57 % 1016,1 hPa 0,0 mm 6,4 km/h (2 Bft) N-NE 20 15 min -6,2 C -0,6 C 16,1 km/h (3 Bft)
19.01.2019 14:45 1,6 C 60 % 1016,3 hPa 0,0 mm 1,6 km/h (1 Bft) N-NE 20 15 min -5,3 C 1,6 C 11,3 km/h (2 Bft)
19.01.2019 14:30 1,4 C 67 % 1016,3 hPa 0,0 mm 0,0 km/h (0 Bft) NE 42 15 min -4,0 C 1,4 C 9,7 km/h (2 Bft)
19.01.2019 14:15 1,3 C 71 % 1016,5 hPa 0,0 mm 0,0 km/h (0 Bft) E 87 15 min -3,4 C 1,3 C 1,6 km/h (1 Bft)
19.01.2019 14:00 1,1 C 72 % 1016,6 hPa 0,0 mm 0,0 km/h (0 Bft) E 87 15 min -3,4 C 1,1 C 4,8 km/h (1 Bft)
19.01.2019 13:45 0,9 C 76 % 1016,8 hPa 0,0 mm 0,0 km/h (0 Bft) E 87 15 min -2,8 C 0,9 C 1,6 km/h (1 Bft)
19.01.2019 13:30 0,9 C 76 % 1016,9 hPa 0,0 mm 0,0 km/h (0 Bft) S-SO 200 15 min -2,8 C 0,9 C 0,0 km/h (0 Bft)
19.01.2019 13:15 0,4 C 78 % 1017,1 hPa 0,0 mm 0,0 km/h (0 Bft) S-SO 200 15 min -3,0 C 0,4 C 0,0 km/h (0 Bft)
19.01.2019 13:00 -0,2 C 81 % 1017,2 hPa 0,0 mm 0,0 km/h (0 Bft) S-SO 200 15 min -3,1 C -0,2 C 0,0 km/h (0 Bft)
19.01.2019 12:45 -0,7 C 82 % 1017,5 hPa 0,0 mm 0,0 km/h (0 Bft) S-SO 200 15 min -3,4 C -0,7 C 0,0 km/h (0 Bft)
19.01.2019 12:30 -1,1 C 83 % 1017,7 hPa 0,0 mm 0,0 km/h (0 Bft) S-SO 200 15 min -3,6 C -1,1 C 0,0 km/h (0 Bft)
19.01.2019 12:15 -1,4 C 83 % 1017,9 hPa 0,0 mm 0,0 km/h (0 Bft) S-SO 200 15 min -3,9 C -1,4 C 0,0 km/h (0 Bft)
19.01.2019 12:00 -1,6 C 83 % 1018,1 hPa 0,0 mm 0,0 km/h (0 Bft) S-SO 200 0 min -4,1 C -1,6 C 0,0 km/h (0 Bft)
19.01.2019 11:45 -1,7 C 84 % 1018,2 hPa 0,0 mm 0,0 km/h (0 Bft) S-SO 200 0 min -4,0 C -1,7 C 0,0 km/h (0 Bft)
19.01.2019 11:30 -1,9 C 84 % 1018,3 hPa 0,0 mm 0,0 km/h (0 Bft) S-SO 200 0 min -4,2 C -1,9 C 0,0 km/h (0 Bft)
19.01.2019 11:15 -2,4 C 86 % 1018,4 hPa 0,0 mm 0,0 km/h (0 Bft) S-SO 200 15 min -4,4 C -2,4 C 0,0 km/h (0 Bft)
19.01.2019 11:00 -2,4 C 87 % 1018,5 hPa 0,0 mm 0,0 km/h (0 Bft) S-SO 200 15 min -4,3 C -2,4 C 0,0 km/h (0 Bft)
19.01.2019 10:45 -2,7 C 87 % 1018,6 hPa 0,0 mm 0,0 km/h (0 Bft) S-SO 200 15 min -4,6 C -2,7 C 0,0 km/h (0 Bft)
19.01.2019 10:30 -3,0 C 87 % 1018,5 hPa 0,0 mm 0,0 km/h (0 Bft) S-SO 200 15 min -4,9 C -3,0 C 0,0 km/h (0 Bft)
19.01.2019 10:15 -3,6 C 89 % 1018,5 hPa 0,0 mm 0,0 km/h (0 Bft) S-SO 200 15 min -5,1 C -3,6 C 0,0 km/h (0 Bft)
19.01.2019 10:00 -4,1 C 90 % 1018,5 hPa 0,0 mm 0,0 km/h (0 Bft) S-SO 200 15 min -5,5 C -4,1 C 0,0 km/h (0 Bft)
19.01.2019 09:45 -4,6 C 92 % 1018,6 hPa 0,0 mm 0,0 km/h (0 Bft) S-SO 200 15 min -5,7 C -4,6 C 0,0 km/h (0 Bft)
19.01.2019 09:30 -5,0 C 92 % 1018,6 hPa 0,0 mm 0,0 km/h (0 Bft) S-SO 200 0 min -6,1 C -5,0 C 0,0 km/h (0 Bft)
19.01.2019 09:15 -5,2 C 92 % 1018,5 hPa 0,0 mm 0,0 km/h (0 Bft) S-SO 200 0 min -6,3 C -5,2 C 0,0 km/h (0 Bft)
19.01.2019 09:00 -5,3 C 92 % 1018,4 hPa 0,0 mm 0,0 km/h (0 Bft) S-SO 200 0 min -6,4 C -5,3 C 0,0 km/h (0 Bft)
19.01.2019 08:45 -5,4 C 92 % 1018,4 hPa 0,0 mm 0,0 km/h (0 Bft) S-SO 200 0 min -6,5 C -5,4 C 0,0 km/h (0 Bft)
19.01.2019 08:30 -5,4 C 92 % 1018,3 hPa 0,0 mm 0,0 km/h (0 Bft) S-SO 200 0 min -6,5 C -5,4 C 0,0 km/h (0 Bft)
19.01.2019 08:15 -5,3 C 92 % 1018,4 hPa 0,0 mm 0,0 km/h (0 Bft) S-SO 200 0 min -6,4 C -5,3 C 0,0 km/h (0 Bft)
19.01.2019 08:00 -5,3 C 92 % 1018,3 hPa 0,0 mm 0,0 km/h (0 Bft) S-SO 200 0 min -6,4 C -5,3 C 0,0 km/h (0 Bft)
19.01.2019 07:45 -5,3 C 92 % 1018,3 hPa 0,0 mm 0,0 km/h (0 Bft) S-SO 200 0 min -6,4 C -5,3 C 0,0 km/h (0 Bft)
19.01.2019 07:30 -5,3 C 92 % 1018,3 hPa 0,0 mm 0,0 km/h (0 Bft) S-SO 200 0 min -6,4 C -5,3 C 0,0 km/h (0 Bft)
19.01.2019 07:15 -5,2 C 91 % 1018,3 hPa 0,0 mm 0,0 km/h (0 Bft) S-SO 200 0 min -6,4 C -5,2 C 0,0 km/h (0 Bft)
19.01.2019 07:00 -5,1 C 92 % 1018,3 hPa 0,0 mm 0,0 km/h (0 Bft) S-SO 200 0 min -6,2 C -5,1 C 0,0 km/h (0 Bft)
19.01.2019 06:45 -4,9 C 92 % 1018,3 hPa 0,0 mm 0,0 km/h (0 Bft) S-SO 200 0 min -6,0 C -4,9 C 0,0 km/h (0 Bft)
19.01.2019 06:30 -4,9 C 92 % 1018,3 hPa 0,0 mm 0,0 km/h (0 Bft) S-SO 200 0 min -6,0 C -4,9 C 0,0 km/h (0 Bft)
19.01.2019 06:15 -5,2 C 92 % 1018,4 hPa 0,0 mm 0,0 km/h (0 Bft) S-SO 200 0 min -6,3 C -5,2 C 0,0 km/h (0 Bft)
19.01.2019 06:00 -5,2 C 92 % 1018,5 hPa 0,0 mm 0,0 km/h (0 Bft) S-SO 200 0 min -6,3 C -5,2 C 0,0 km/h (0 Bft)
19.01.2019 05:45 -5,2 C 92 % 1018,3 hPa 0,0 mm 0,0 km/h (0 Bft) S-SO 200 0 min -6,3 C -5,2 C 0,0 km/h (0 Bft)
19.01.2019 05:30 -5,2 C 92 % 1018,4 hPa 0,0 mm 0,0 km/h (0 Bft) S-SO 200 0 min -6,3 C -5,2 C 0,0 km/h (0 Bft)
19.01.2019 05:15 -5,2 C 92 % 1018,4 hPa 0,0 mm 0,0 km/h (0 Bft) E-NE 65 0 min -6,3 C -5,2 C 1,6 km/h (1 Bft)
19.01.2019 05:00 -5,3 C 92 % 1018,4 hPa 0,0 mm 0,0 km/h (0 Bft) E-NE 65 0 min -6,4 C -5,3 C 3,2 km/h (1 Bft)
19.01.2019 04:45 -5,2 C 92 % 1018,5 hPa 0,0 mm 0,0 km/h (0 Bft) S-SO 200 0 min -6,3 C -5,2 C 0,0 km/h (0 Bft)
19.01.2019 04:30 -5,2 C 91 % 1018,6 hPa 0,0 mm 0,0 km/h (0 Bft) E-NE 65 0 min -6,4 C -5,2 C 1,6 km/h (1 Bft)
19.01.2019 04:15 -5,2 C 91 % 1018,7 hPa 0,0 mm 0,0 km/h (0 Bft) S-SO 200 0 min -6,4 C -5,2 C 0,0 km/h (0 Bft)
19.01.2019 04:00 -5,1 C 91 % 1018,8 hPa 0,0 mm 0,0 km/h (0 Bft) S-SO 200 0 min -6,3 C -5,1 C 0,0 km/h (0 Bft)
19.01.2019 03:45 -4,9 C 91 % 1018,9 hPa 0,0 mm 0,0 km/h (0 Bft) S-SO 200 0 min -6,1 C -4,9 C 0,0 km/h (0 Bft)
19.01.2019 03:30 -4,8 C 91 % 1018,8 hPa 0,0 mm 0,0 km/h (0 Bft) S-SO 200 0 min -6,0 C -4,8 C 0,0 km/h (0 Bft)
19.01.2019 03:15 -4,7 C 91 % 1019,0 hPa 0,0 mm 0,0 km/h (0 Bft) S-SO 200 0 min -5,9 C -4,7 C 0,0 km/h (0 Bft)
19.01.2019 03:00 -4,6 C 91 % 1019,0 hPa 0,0 mm 0,0 km/h (0 Bft) S-SO 200 0 min -5,8 C -4,6 C 0,0 km/h (0 Bft)
19.01.2019 02:45 -4,6 C 91 % 1019,1 hPa 0,0 mm 0,0 km/h (0 Bft) S-SO 200 0 min -5,8 C -4,6 C 0,0 km/h (0 Bft)
19.01.2019 02:30 -4,5 C 91 % 1019,2 hPa 0,0 mm 0,0 km/h (0 Bft) S-SO 200 0 min -5,7 C -4,5 C 0,0 km/h (0 Bft)
19.01.2019 02:15 -4,4 C 91 % 1019,1 hPa 0,0 mm 0,0 km/h (0 Bft) S-SO 200 0 min -5,6 C -4,4 C 0,0 km/h (0 Bft)
19.01.2019 02:00 -4,3 C 91 % 1019,1 hPa 0,0 mm 0,0 km/h (0 Bft) S-SO 200 0 min -5,5 C -4,3 C 0,0 km/h (0 Bft)
19.01.2019 01:45 -4,2 C 91 % 1019,2 hPa 0,0 mm 0,0 km/h (0 Bft) S-SO 200 0 min -5,4 C -4,2 C 0,0 km/h (0 Bft)
19.01.2019 01:30 -4,2 C 90 % 1019,2 hPa 0,0 mm 0,0 km/h (0 Bft) S-SO 200 0 min -5,6 C -4,2 C 0,0 km/h (0 Bft)
19.01.2019 01:15 -4,1 C 90 % 1019,3 hPa 0,0 mm 0,0 km/h (0 Bft) E-NE 65 0 min -5,5 C -4,1 C 3,2 km/h (1 Bft)
19.01.2019 01:00 -4,0 C 90 % 1019,3 hPa 0,0 mm 0,0 km/h (0 Bft) S-SO 200 0 min -5,4 C -4,0 C 0,0 km/h (0 Bft)
_ Min-Heure 08:30 15:00 00:00 - 01:00 - - - 00:15 08:30 01:00
Minimum _ -5,4 C 57 % 1015,0 hPa - 0,0 km/h (0 Bft) - - - -7,0 C -5,4 C 0,0 km/h (0 Bft)
_ Max-Heure 15:30 04:45 01:00 01:00 15:00 - - 09:45 13:30 15:30 15:00
Maximum _ 1,7 C 92 % 1019,3 hPa 0,0 mm 6,4 km/h
N-NE (2 Bft)
- - 15 min -2,8 C 1,7 C 16,1 km/h
N-NE (3 Bft)
Moyenne _ -2,8 C 83 % 1017,2 hPa #0,0 mm 0,3 km/h (0 Bft) N-NE - #0 min. -5,4 C -2,9 C 1,4 km/h (1 Bft)